Lillington, NC

6:29 AM EDT on August 30, 2014 (GMT -0400)
Harnett County | Change Station
CLOSE
Current Station
Airport
Location: Erwin,
Elevation: 197 ft
Nearby Weather Stations

Elev 197 ft 35.38 °N, 78.73 °W | Updated 34 minutes ago

Overcast
Overcast
74 °F
Feels Like 74 °F
N
4
Wind Variable Wind from NE

Today
High -- | Low -- °F
--% Chance of Precip.
Yesterday
High -- | Low -- °F
Precip. -- in
6:46 AM 7:45 PM
Waxing Crescent, 21% visible
Pressure 30.19 in
Visibility 5.0 miles
Clouds Overcast 300 ft
Dew Point 73 °F
Humidity 99%
Rainfall 0.00 in
Snow Depth Not available.
UV 0 out of 12
Pollen 8.50 out of 12
PM2.5 Good
Flu Activity Not available.
METAR KHRJ 300955Z AUTO 04003KT 5SM BR OVC003 23/23 A3019 RMK AO2 T02310230

More Conditions Fewer Conditions

Pressure 30.19 in
Visibility 5.0 miles
Clouds Overcast 300 ft
Dew Point 73 °F
Humidity 99%
Rainfall 0.00 in
Snow Depth Not available.
UV 0 out of 12
Pollen 8.50 out of 12
PM2.5 Good
Flu Activity Not available.
METAR KHRJ 300955Z AUTO 04003KT 5SM BR OVC003 23/23 A3019 RMK AO2 T02310230

More Conditions Fewer Conditions

10-Day Weather Forecast

Almanac

Astronomy

Aug. 30, 2014 Rise Set
Actual Time 6:46 AM EDT 7:45 PM EDT
Civil Twilight 6:19 AM EDT 8:11 PM EDT
Nautical Twilight 5:49 AM EDT 8:41 PM EDT
Astronomical Twilight 5:17 AM EDT 9:13 PM EDT
Moon 11:20 AM EDT 10:30 PM EDT
Length of Visible Light 13h 51m
Length of Day
12h 58m
Tomorrow will be 2m 7s shorter.
Waxing Crescent, 21% of the Moon is Illuminated
Today
Waxing Crescent
Sep 2
First Quarter
Sep 8
Full
Sep 15
Last Quarter
Sep 24
New

Today's Extremes

State Highs State Lows

Community

WunderPhotos

Upload Photos

1,748,482 photos uploaded!

Nearby

Air Quality

  Air Quality AQ Index Pollutant
Yesterday Moderate
OZONE
Yesterday Moderate
PM2.5
Current Good
PM2.5
Saturday Good
OZONE
Saturday Good
PM2.5
Sunday Good
PM2.5
Sunday Good
OZONE
Monday Good
PM2.5
Monday Good
OZONE

Snow Depth

Station Depth Elevation
No new snow has been reported.

Earthquake Activity

City Distance Mag. Time & Date
No recent earthquake activity has been reported nearby.
Minimum magnitude displayed is 2.5.

Coastal Water Temperatures

Place Temperature
No Stations Reporting

Nearby Weather Stations